Time;durP1;ratioP1;P1;durP2;ratioP2;P2;SDS_P1;SDS_P2;PMS_P1;PMS_P2;Temp;Humidity;BMP_temperature;BMP_pressure;BME280_temperature;BME280_humidity;BME280_pressure;Samples;Min_cycle;Max_cycle;Signal;HPM_P1;HPM_P2
2023/09/21 00:00:59;;;;;;;2.45;1.33;;;16.60;99.90;;;;;;5005919;28;20758;-89
2023/09/21 00:03:28;;;;;;;3.88;1.38;;;16.60;99.90;;;;;;4988123;28;20085;-89
2023/09/21 00:05:55;;;;;;;2.55;1.60;;;16.60;99.90;;;;;;4972564;28;20121;-82
2023/09/21 00:08:22;;;;;;;2.58;1.80;;;16.60;99.90;;;;;;5007566;28;20046;-80
2023/09/21 00:10:49;;;;;;;2.97;1.58;;;16.70;99.90;;;;;;5024551;28;20041;-87
2023/09/21 00:13:15;;;;;;;1.83;1.60;;;16.70;99.90;;;;;;5006911;28;20446;-87
2023/09/21 00:15:42;;;;;;;2.17;1.40;;;16.70;99.90;;;;;;4988720;28;20117;-89
2023/09/21 00:18:08;;;;;;;2.08;1.30;;;16.70;99.90;;;;;;4988390;28;20050;-89
2023/09/21 00:20:42;;;;;;;2.35;1.45;;;16.70;99.90;;;;;;4972459;28;20539;-83
2023/09/21 00:23:11;;;;;;;1.88;1.23;;;16.70;99.90;;;;;;4972168;28;20038;-86
2023/09/21 00:25:38;;;;;;;2.00;1.38;;;16.70;99.90;;;;;;4987862;28;20526;-87
2023/09/21 00:28:14;;;;;;;1.52;1.42;;;16.70;99.90;;;;;;4987781;28;20046;-85
2023/09/21 00:30:41;;;;;;;1.85;1.20;;;16.70;99.90;;;;;;4971738;28;20037;-89
2023/09/21 00:33:08;;;;;;;4.82;1.75;;;16.70;99.90;;;;;;4987940;28;20050;-90
2023/09/21 00:35:39;;;;;;;3.20;1.73;;;16.70;99.90;;;;;;4986479;28;20153;-81
2023/09/21 00:38:07;;;;;;;4.15;1.30;;;16.70;99.90;;;;;;5007271;28;20052;-83
2023/09/21 00:40:32;;;;;;;2.08;1.23;;;16.70;99.90;;;;;;5005390;28;20152;-89
2023/09/21 00:43:01;;;;;;;1.55;1.02;;;16.70;99.90;;;;;;5006231;28;20284;-89
2023/09/21 00:45:26;;;;;;;4.32;1.55;;;16.70;99.90;;;;;;5025019;28;20049;-86
2023/09/21 00:47:54;;;;;;;1.75;1.30;;;16.60;99.90;;;;;;5007135;28;20458;-82
2023/09/21 00:50:21;;;;;;;2.17;1.40;;;16.60;99.90;;;;;;5024793;28;20041;-80
2023/09/21 00:52:51;;;;;;;1.73;0.90;;;16.60;99.90;;;;;;5007059;28;20083;-78
2023/09/21 00:55:23;;;;;;;2.50;1.40;;;16.60;99.90;;;;;;5005835;28;20049;-89
2023/09/21 00:57:59;;;;;;;1.50;1.33;;;16.60;99.90;;;;;;5006998;28;20095;-80
2023/09/21 01:00:26;;;;;;;2.38;1.58;;;16.60;99.90;;;;;;5006845;28;20072;-89
2023/09/21 01:05:23;;;;;;;1.98;1.50;;;16.60;99.90;;;;;;5019501;28;20041;-83
2023/09/21 01:07:50;;;;;;;3.03;1.00;;;16.60;99.90;;;;;;4998854;28;20056;-89
2023/09/21 01:10:19;;;;;;;2.45;1.67;;;16.60;99.90;;;;;;4994005;28;20368;-77
2023/09/21 01:12:49;;;;;;;2.05;1.85;;;16.60;99.90;;;;;;5006382;28;20049;-88
2023/09/21 01:15:15;;;;;;;1.95;1.23;;;16.60;99.90;;;;;;5024095;28;20466;-82
2023/09/21 01:17:41;;;;;;;4.32;1.98;;;16.60;99.90;;;;;;5024198;28;20049;-83
2023/09/21 01:20:22;;;;;;;4.00;1.75;;;16.60;99.90;;;;;;5024598;28;20041;-86
2023/09/21 01:22:57;;;;;;;3.42;1.70;;;16.70;99.90;;;;;;5006122;28;20077;-84
2023/09/21 01:25:23;;;;;;;2.95;1.23;;;16.60;99.90;;;;;;5005022;28;20049;-84
2023/09/21 01:27:51;;;;;;;3.25;1.10;;;16.60;99.90;;;;;;5006880;28;20471;-82
2023/09/21 01:30:17;;;;;;;3.13;1.63;;;16.60;99.90;;;;;;4990099;28;20064;-80
2023/09/21 01:32:43;;;;;;;2.08;1.25;;;16.60;99.90;;;;;;5024409;28;20137;-84
2023/09/21 01:35:09;;;;;;;4.22;1.52;;;16.60;99.90;;;;;;5006284;28;20064;-84
2023/09/21 01:37:35;;;;;;;2.80;1.60;;;16.60;99.90;;;;;;5005778;28;20045;-87
2023/09/21 01:40:10;;;;;;;2.20;1.50;;;16.60;99.90;;;;;;4989697;28;20084;-89
2023/09/21 01:42:36;;;;;;;3.95;1.88;;;16.60;99.90;;;;;;4990041;28;20041;-80
2023/09/21 01:45:03;;;;;;;3.15;1.67;;;16.60;99.90;;;;;;5006059;28;20125;-85
2023/09/21 01:47:30;;;;;;;2.00;1.48;;;16.60;99.90;;;;;;4989359;28;20056;-87
2023/09/21 01:49:55;;;;;;;3.78;1.42;;;16.60;99.90;;;;;;5023119;28;20542;-80
2023/09/21 01:52:21;;;;;;;2.15;1.25;;;16.60;99.90;;;;;;5005386;28;20076;-88
2023/09/21 01:54:47;;;;;;;4.93;1.33;;;16.60;99.90;;;;;;5023952;28;20045;-90
2023/09/21 01:57:12;;;;;;;3.88;1.45;;;16.50;99.90;;;;;;5022050;28;20380;-78
2023/09/21 01:59:38;;;;;;;2.00;1.08;;;16.60;99.90;;;;;;5023355;28;20103;-82
2023/09/21 02:02:03;;;;;;;2.15;1.42;;;16.60;99.90;;;;;;5023803;28;20037;-83
2023/09/21 02:04:29;;;;;;;3.90;1.27;;;16.60;99.90;;;;;;5022870;28;20080;-78
2023/09/21 02:06:55;;;;;;;2.47;1.60;;;16.60;99.90;;;;;;4989051;28;20718;-82
2023/09/21 02:09:20;;;;;;;2.97;1.00;;;16.50;99.90;;;;;;5005221;28;20052;-84
2023/09/21 02:11:47;;;;;;;3.38;1.80;;;16.50;99.90;;;;;;5005058;28;20045;-83
2023/09/21 02:14:13;;;;;;;5.05;2.15;;;16.50;99.90;;;;;;5005572;28;20167;-88
2023/09/21 02:16:39;;;;;;;3.67;1.95;;;16.60;99.90;;;;;;5005737;28;20057;-85
2023/09/21 02:19:06;;;;;;;1.77;1.67;;;16.60;99.90;;;;;;5005628;28;20051;-88
2023/09/21 02:21:34;;;;;;;3.33;1.73;;;16.50;99.90;;;;;;4988775;28;20038;-83
2023/09/21 02:24:00;;;;;;;2.28;1.58;;;16.50;99.90;;;;;;4988889;28;20085;-82
2023/09/21 02:26:26;;;;;;;1.77;1.10;;;16.60;99.90;;;;;;5003930;28;20048;-78
2023/09/21 02:28:53;;;;;;;2.17;1.20;;;16.50;99.90;;;;;;5004944;28;20607;-89
2023/09/21 02:31:21;;;;;;;3.50;1.58;;;16.60;99.90;;;;;;5005220;28;20053;-86
2023/09/21 02:33:47;;;;;;;1.50;1.40;;;16.60;99.90;;;;;;5005528;28;20055;-88
2023/09/21 02:36:18;;;;;;;3.58;1.42;;;16.50;99.90;;;;;;5004920;28;20139;-85
2023/09/21 02:38:43;;;;;;;2.28;1.85;;;16.60;99.90;;;;;;4988644;28;20096;-83
2023/09/21 02:41:09;;;;;;;3.30;1.38;;;16.50;99.90;;;;;;4987969;28;20045;-85
2023/09/21 02:43:34;;;;;;;3.63;1.90;;;16.60;99.90;;;;;;5005587;28;20373;-89
2023/09/21 02:46:00;;;;;;;1.40;1.10;;;16.60;99.90;;;;;;4988521;28;20099;-89
2023/09/21 02:48:26;;;;;;;1.73;1.38;;;16.50;99.90;;;;;;5004153;28;20491;-84
2023/09/21 02:50:51;;;;;;;5.03;1.60;;;16.50;99.90;;;;;;5005380;28;20069;-88
2023/09/21 02:53:17;;;;;;;5.85;2.03;;;16.60;99.90;;;;;;4988260;28;20124;-87
2023/09/21 02:55:42;;;;;;;1.25;1.15;;;16.60;99.90;;;;;;4987812;28;20431;-82
2023/09/21 02:58:15;;;;;;;2.50;1.33;;;16.60;99.90;;;;;;5005445;28;20045;-84
2023/09/21 03:00:42;;;;;;;3.10;2.00;;;16.60;99.90;;;;;;5004819;28;20045;-81
2023/09/21 03:03:13;;;;;;;3.03;1.35;;;16.60;99.90;;;;;;5005218;28;20037;-77
2023/09/21 03:05:47;;;;;;;1.92;1.00;;;16.60;99.90;;;;;;5005036;28;20488;-80
2023/09/21 03:08:13;;;;;;;2.03;1.40;;;16.60;99.90;;;;;;4985242;28;20060;-84
2023/09/21 03:10:50;;;;;;;1.92;1.30;;;16.60;99.90;;;;;;4993046;28;20129;-82
2023/09/21 03:13:18;;;;;;;2.78;1.67;;;16.60;99.90;;;;;;5006734;28;20077;-86
2023/09/21 03:15:58;;;;;;;3.78;1.48;;;16.60;99.90;;;;;;5004627;28;20080;-78
2023/09/21 03:18:24;;;;;;;2.90;1.23;;;16.60;99.90;;;;;;4989546;28;20380;-88
2023/09/21 03:20:52;;;;;;;1.75;1.05;;;16.60;99.90;;;;;;5005025;28;20049;-88
2023/09/21 03:23:17;;;;;;;4.05;1.10;;;16.60;99.90;;;;;;5004323;28;20045;-87
2023/09/21 03:25:45;;;;;;;3.45;1.48;;;16.60;99.90;;;;;;5021053;28;20049;-85
2023/09/21 03:28:13;;;;;;;1.75;1.30;;;16.60;99.90;;;;;;5004418;28;20041;-82
2023/09/21 03:30:44;;;;;;;2.17;1.23;;;16.60;99.90;;;;;;5022645;28;20645;-84
2023/09/21 03:33:10;;;;;;;4.18;1.42;;;16.60;99.90;;;;;;5004538;28;20049;-78
2023/09/21 03:35:37;;;;;;;2.17;1.20;;;16.60;99.90;;;;;;4988249;28;20054;-84
2023/09/21 03:38:12;;;;;;;4.30;1.65;;;16.60;99.90;;;;;;5004446;28;20092;-81
2023/09/21 03:40:41;;;;;;;1.65;1.10;;;16.60;99.90;;;;;;5004064;28;20103;-87
2023/09/21 03:43:10;;;;;;;1.67;1.27;;;16.60;99.90;;;;;;5004963;28;20103;-80
2023/09/21 03:45:37;;;;;;;1.60;1.38;;;16.60;99.90;;;;;;5004769;28;20049;-80
2023/09/21 03:48:04;;;;;;;1.25;1.05;;;16.60;99.90;;;;;;5004524;28;20045;-84
2023/09/21 03:50:31;;;;;;;3.67;1.90;;;16.60;99.90;;;;;;5003844;28;20045;-87
2023/09/21 03:52:59;;;;;;;3.47;1.88;;;16.60;99.90;;;;;;5022354;28;20049;-85
2023/09/21 03:55:25;;;;;;;2.22;1.75;;;16.60;99.90;;;;;;4998330;28;20370;-81
2023/09/21 03:57:51;;;;;;;2.50;1.20;;;16.60;99.90;;;;;;4996664;28;20053;-80
2023/09/21 04:03:08;;;;;;;2.20;1.90;;;16.60;99.90;;;;;;5007855;28;20079;-82
2023/09/21 04:05:35;;;;;;;1.92;1.20;;;16.60;99.90;;;;;;5008517;28;20052;-85
2023/09/21 04:08:02;;;;;;;2.33;1.73;;;16.60;99.90;;;;;;5007811;28;20120;-86
2023/09/21 04:10:28;;;;;;;3.97;1.60;;;16.60;99.90;;;;;;5024233;28;20090;-83
2023/09/21 04:12:57;;;;;;;1.98;1.50;;;16.60;99.90;;;;;;4991259;28;20683;-80
2023/09/21 04:15:28;;;;;;;1.77;1.58;;;16.60;99.90;;;;;;5005767;28;20041;-86
2023/09/21 04:17:54;;;;;;;3.30;1.48;;;16.60;99.90;;;;;;4991152;28;20496;-88
2023/09/21 04:20:21;;;;;;;3.80;1.50;;;16.60;99.90;;;;;;5007121;28;20049;-81
2023/09/21 04:22:49;;;;;;;2.30;1.70;;;16.60;99.90;;;;;;5025490;28;20041;-83
2023/09/21 04:25:16;;;;;;;3.38;1.27;;;16.60;99.90;;;;;;5005682;28;20042;-86
2023/09/21 04:27:50;;;;;;;2.50;1.50;;;16.60;99.90;;;;;;5007612;28;20038;-88
2023/09/21 04:30:17;;;;;;;2.70;1.75;;;16.60;99.90;;;;;;5007018;28;20041;-81
2023/09/21 04:32:46;;;;;;;2.15;1.30;;;16.60;99.90;;;;;;5019976;28;20045;-80
2023/09/21 04:35:13;;;;;;;2.30;1.80;;;16.70;99.90;;;;;;5005402;28;20583;-89
2023/09/21 04:37:39;;;;;;;1.98;1.55;;;16.70;99.90;;;;;;4996965;28;20041;-84
2023/09/21 04:40:09;;;;;;;2.75;2.17;;;16.70;99.90;;;;;;5007269;28;20045;-78
2023/09/21 04:42:38;;;;;;;3.78;1.80;;;16.70;99.90;;;;;;5006912;28;20049;-77
2023/09/21 04:45:09;;;;;;;4.07;1.73;;;16.70;99.90;;;;;;5007187;28;20064;-84
2023/09/21 04:47:35;;;;;;;2.95;1.50;;;16.70;99.90;;;;;;5006912;28;20102;-88
2023/09/21 04:50:01;;;;;;;2.08;1.60;;;16.70;99.90;;;;;;5007057;28;20053;-83
2023/09/21 04:52:26;;;;;;;2.22;1.60;;;16.70;99.90;;;;;;5004231;28;20049;-83
2023/09/21 04:54:52;;;;;;;2.67;2.15;;;16.70;99.90;;;;;;5006312;28;20049;-81
2023/09/21 04:57:22;;;;;;;6.28;1.50;;;16.70;99.90;;;;;;5024248;28;20071;-81
2023/09/21 04:59:48;;;;;;;5.07;2.30;;;16.70;99.90;;;;;;4999895;28;20077;-86
2023/09/21 05:02:14;;;;;;;1.75;1.30;;;16.70;99.90;;;;;;4998560;28;20143;-88
2023/09/21 05:04:39;;;;;;;3.03;2.08;;;16.70;99.90;;;;;;5001581;28;20388;-86
2023/09/21 05:07:06;;;;;;;4.57;1.80;;;16.70;99.90;;;;;;4997257;28;20156;-83
2023/09/21 05:09:33;;;;;;;3.58;2.03;;;16.70;99.90;;;;;;4997098;28;20114;-84
2023/09/21 05:11:58;;;;;;;1.90;1.65;;;16.70;99.90;;;;;;4997714;28;20053;-81
2023/09/21 05:14:25;;;;;;;4.53;1.98;;;16.70;99.90;;;;;;4986888;28;20524;-80
2023/09/21 05:16:52;;;;;;;3.33;2.15;;;16.70;99.90;;;;;;5021113;28;20049;-81
2023/09/21 05:19:18;;;;;;;5.97;2.00;;;16.70;99.90;;;;;;5006384;28;20052;-86
2023/09/21 05:21:44;;;;;;;1.90;1.40;;;16.70;99.90;;;;;;5006435;28;20077;-86
2023/09/21 05:24:10;;;;;;;4.30;1.60;;;16.70;99.90;;;;;;4988645;28;20510;-86
2023/09/21 05:26:36;;;;;;;2.08;1.67;;;16.60;99.90;;;;;;5005604;28;20088;-85
2023/09/21 05:29:02;;;;;;;3.83;2.00;;;16.60;99.90;;;;;;5005289;28;20045;-83
2023/09/21 05:31:28;;;;;;;3.10;2.10;;;16.60;99.90;;;;;;5006001;28;20674;-80
2023/09/21 05:33:54;;;;;;;2.97;1.60;;;16.60;99.90;;;;;;5006213;28;20052;-80
2023/09/21 05:36:21;;;;;;;4.82;2.38;;;16.60;99.90;;;;;;5006016;28;20037;-82
2023/09/21 05:38:47;;;;;;;4.15;1.90;;;16.60;99.90;;;;;;5006117;28;20118;-83
2023/09/21 05:41:12;;;;;;;2.42;1.83;;;16.60;99.90;;;;;;5005355;28;20593;-85
2023/09/21 05:43:39;;;;;;;4.03;2.17;;;16.60;99.90;;;;;;5005355;28;20044;-86
2023/09/21 05:46:04;;;;;;;2.63;1.67;;;16.60;99.90;;;;;;4998976;28;20046;-85
2023/09/21 05:48:31;;;;;;;3.95;1.42;;;16.50;99.90;;;;;;4986320;28;20494;-77
2023/09/21 05:50:56;;;;;;;4.55;2.20;;;16.60;99.90;;;;;;5000719;28;20041;-82
2023/09/21 05:53:22;;;;;;;2.88;2.00;;;16.50;99.90;;;;;;5004588;28;20068;-83
2023/09/21 05:55:48;;;;;;;1.90;1.50;;;16.50;99.90;;;;;;5000729;28;20033;-81
2023/09/21 05:58:13;;;;;;;1.92;1.27;;;16.50;99.90;;;;;;5014929;28;20635;-80
2023/09/21 06:00:40;;;;;;;2.53;1.60;;;16.50;99.90;;;;;;5022649;28;20111;-80
2023/09/21 06:03:06;;;;;;;5.05;3.05;;;16.50;99.90;;;;;;5010049;28;20071;-85
2023/09/21 06:05:32;;;;;;;4.20;1.52;;;16.40;99.90;;;;;;5015642;28;20521;-82
2023/09/21 06:07:58;;;;;;;1.92;1.60;;;16.50;99.90;;;;;;5010259;28;20045;-80
2023/09/21 06:10:25;;;;;;;3.30;1.83;;;16.40;99.90;;;;;;4997423;28;20048;-78
2023/09/21 06:12:52;;;;;;;4.32;2.20;;;16.40;99.90;;;;;;5019822;28;20452;-88
2023/09/21 06:15:18;;;;;;;4.25;1.63;;;16.40;99.90;;;;;;4984983;28;20041;-79
2023/09/21 06:17:44;;;;;;;3.90;2.10;;;16.40;99.90;;;;;;4986109;28;20079;-84
2023/09/21 06:20:11;;;;;;;2.70;1.63;;;16.40;99.90;;;;;;5005012;28;20624;-86
2023/09/21 06:22:37;;;;;;;2.80;2.10;;;16.40;99.90;;;;;;5022529;28;20065;-84
2023/09/21 06:25:04;;;;;;;3.42;1.98;;;16.40;99.90;;;;;;5020967;28;20426;-82
2023/09/21 06:27:30;;;;;;;4.93;2.63;;;16.40;99.90;;;;;;4988633;28;20052;-86
2023/09/21 06:29:56;;;;;;;2.78;1.90;;;16.40;99.90;;;;;;5022851;28;20550;-85
2023/09/21 06:32:23;;;;;;;6.18;1.70;;;16.40;99.90;;;;;;5022313;28;20041;-86
2023/09/21 06:34:51;;;;;;;4.32;1.83;;;16.30;99.90;;;;;;5022716;28;20037;-83
2023/09/21 06:37:18;;;;;;;2.35;2.00;;;16.40;99.90;;;;;;5008806;28;20045;-87
2023/09/21 06:39:44;;;;;;;6.45;2.30;;;16.40;99.90;;;;;;5002747;28;20056;-82
2023/09/21 06:42:10;;;;;;;4.30;2.10;;;16.40;99.90;;;;;;5009566;28;20033;-82
2023/09/21 06:44:36;;;;;;;2.83;2.45;;;16.40;99.90;;;;;;5005846;28;20049;-86
2023/09/21 06:47:03;;;;;;;3.30;2.33;;;16.30;99.90;;;;;;5022879;28;20035;-87
2023/09/21 06:49:29;;;;;;;3.20;1.60;;;16.30;99.90;;;;;;5003810;28;20049;-82
2023/09/21 06:51:56;;;;;;;4.13;2.00;;;16.30;99.90;;;;;;5003390;28;20168;-82
2023/09/21 06:54:23;;;;;;;3.33;2.60;;;16.30;99.90;;;;;;4986898;28;20545;-86
2023/09/21 06:56:49;;;;;;;3.20;1.52;;;16.30;99.90;;;;;;4988090;28;20120;-87
2023/09/21 06:59:15;;;;;;;1.88;1.20;;;16.30;99.90;;;;;;5001945;28;20084;-79
2023/09/21 07:01:40;;;;;;;1.13;0.90;;;16.10;99.90;;;;;;5004252;28;20084;-83
2023/09/21 07:04:07;;;;;;;1.05;0.65;;;16.00;99.90;;;;;;5021864;28;20049;-86
2023/09/21 07:06:32;;;;;;;1.60;0.88;;;15.90;99.90;;;;;;5021551;28;20048;-86
2023/09/21 07:09:00;;;;;;;2.67;0.60;;;15.70;99.90;;;;;;4986840;28;20037;-82
2023/09/21 07:11:26;;;;;;;1.05;0.95;;;15.60;99.90;;;;;;5002048;28;20045;-85
2023/09/21 07:13:51;;;;;;;0.68;0.68;;;15.60;99.90;;;;;;5022289;28;20071;-77
2023/09/21 07:16:22;;;;;;;0.47;0.47;;;15.50;99.90;;;;;;5003587;28;20068;-86
2023/09/21 07:18:47;;;;;;;2.28;0.55;;;15.40;99.90;;;;;;5003660;28;20056;-84
2023/09/21 07:21:14;;;;;;;0.60;0.52;;;15.40;99.90;;;;;;4987410;28;20049;-87
2023/09/21 07:23:40;;;;;;;0.55;0.50;;;15.40;99.90;;;;;;5003661;28;20053;-80
2023/09/21 07:26:06;;;;;;;2.83;1.02;;;15.30;99.90;;;;;;5003592;28;20045;-84
2023/09/21 07:28:32;;;;;;;0.90;0.60;;;15.30;99.90;;;;;;5003540;28;20555;-81
2023/09/21 07:30:58;;;;;;;1.27;0.88;;;15.30;99.90;;;;;;5021707;28;20049;-88
2023/09/21 07:33:23;;;;;;;1.48;0.73;;;15.30;99.90;;;;;;5003319;28;20444;-78
2023/09/21 07:35:50;;;;;;;1.25;1.15;;;15.30;99.90;;;;;;5006277;28;20562;-85
2023/09/21 07:38:18;;;;;;;3.10;0.47;;;15.30;99.90;;;;;;5025282;28;20499;-85
2023/09/21 07:40:44;;;;;;;2.20;0.70;;;15.30;99.90;;;;;;5006020;28;20049;-90
2023/09/21 07:43:10;;;;;;;0.82;0.60;;;15.30;99.90;;;;;;4991116;28;20385;-84
2023/09/21 07:45:36;;;;;;;0.85;0.68;;;15.30;99.90;;;;;;5008055;28;20057;-82
2023/09/21 07:48:02;;;;;;;1.38;0.77;;;15.30;99.90;;;;;;4991230;28;20049;-86
2023/09/21 07:50:32;;;;;;;1.67;0.77;;;15.30;99.90;;;;;;5006765;28;20488;-88
2023/09/21 07:52:59;;;;;;;5.97;0.80;;;15.30;99.90;;;;;;5025039;28;20563;-82
2023/09/21 07:55:25;;;;;;;1.23;0.65;;;15.30;99.90;;;;;;5006142;28;20041;-80
2023/09/21 07:57:50;;;;;;;0.68;0.68;;;15.30;99.90;;;;;;5024660;28;20072;-87
2023/09/21 08:00:17;;;;;;;1.92;1.08;;;15.30;99.90;;;;;;5024871;28;20127;-84
2023/09/21 08:02:42;;;;;;;0.43;0.43;;;15.30;99.90;;;;;;5006515;28;20037;-85
2023/09/21 08:05:09;;;;;;;1.65;0.70;;;15.30;99.90;;;;;;5006912;28;20065;-89
2023/09/21 08:07:36;;;;;;;1.42;0.55;;;15.30;99.90;;;;;;4992806;28;20052;-88
2023/09/21 08:10:03;;;;;;;1.58;0.85;;;15.30;99.90;;;;;;5003818;28;20041;-79
2023/09/21 08:12:30;;;;;;;0.95;0.50;;;15.30;99.90;;;;;;4986418;28;20057;-90
2023/09/21 08:14:57;;;;;;;0.50;0.50;;;15.30;99.90;;;;;;5005389;28;20034;-91
2023/09/21 08:17:23;;;;;;;1.35;0.38;;;15.30;99.90;;;;;;5004327;28;20385;-84
2023/09/21 08:19:49;;;;;;;2.95;0.52;;;15.30;99.90;;;;;;4986520;28;20037;-85
2023/09/21 08:22:14;;;;;;;1.83;0.68;;;15.30;99.90;;;;;;5004697;28;20046;-88
2023/09/21 08:24:41;;;;;;;3.60;1.23;;;15.40;99.90;;;;;;5004014;28;20533;-90
2023/09/21 08:27:07;;;;;;;1.05;0.65;;;15.40;99.90;;;;;;4987258;28;20413;-85
2023/09/21 08:29:33;;;;;;;1.65;0.50;;;15.40;99.90;;;;;;4970403;28;20080;-86
2023/09/21 08:31:58;;;;;;;0.93;0.73;;;15.40;99.90;;;;;;4987239;28;20049;-80
2023/09/21 08:34:24;;;;;;;2.47;0.52;;;15.40;99.90;;;;;;4970608;28;20502;-89
2023/09/21 08:36:50;;;;;;;0.68;0.60;;;15.40;99.90;;;;;;4986962;28;20160;-85
2023/09/21 08:39:16;;;;;;;0.57;0.52;;;15.40;99.90;;;;;;4969316;28;20054;-84
2023/09/21 08:41:51;;;;;;;1.15;0.40;;;15.50;99.90;;;;;;4986678;28;20044;-90
2023/09/21 08:44:20;;;;;;;1.33;0.50;;;15.50;99.90;;;;;;4986464;28;20092;-84
2023/09/21 08:46:47;;;;;;;4.38;0.70;;;15.50;99.90;;;;;;4986959;28;20046;-90
2023/09/21 08:49:16;;;;;;;1.30;0.60;;;15.50;99.90;;;;;;4986767;28;20050;-84
2023/09/21 08:51:42;;;;;;;0.52;0.50;;;15.50;99.90;;;;;;4986572;28;20080;-88
2023/09/21 08:54:08;;;;;;;0.70;0.43;;;15.50;99.90;;;;;;4985793;28;20049;-82
2023/09/21 08:56:36;;;;;;;0.60;0.60;;;15.50;99.90;;;;;;5004654;28;20579;-87
2023/09/21 08:59:04;;;;;;;1.42;0.77;;;15.50;99.90;;;;;;5003477;28;20096;-83
2023/09/21 09:01:30;;;;;;;0.80;0.45;;;15.50;99.90;;;;;;5003373;28;20128;-82
2023/09/21 09:03:57;;;;;;;1.58;0.73;;;15.50;99.90;;;;;;5002825;28;20093;-88
2023/09/21 09:06:23;;;;;;;1.55;0.68;;;15.50;99.90;;;;;;5007884;28;20499;-83
2023/09/21 09:08:49;;;;;;;3.15;0.55;;;15.50;99.90;;;;;;5004528;28;20041;-88
2023/09/21 09:11:38;;;;;;;1.20;0.43;;;15.50;99.90;;;;;;5022969;28;20067;-88
2023/09/21 09:14:04;;;;;;;3.00;0.47;;;15.50;99.90;;;;;;5005195;28;20041;-84
2023/09/21 09:16:31;;;;;;;2.25;0.82;;;15.50;99.90;;;;;;5005735;28;20045;-89
2023/09/21 09:19:02;;;;;;;2.30;0.55;;;15.50;99.90;;;;;;5006214;28;20049;-89
2023/09/21 09:21:28;;;;;;;3.10;0.40;;;15.50;99.90;;;;;;4988963;28;20049;-83
2023/09/21 09:23:56;;;;;;;1.05;0.70;;;15.60;99.90;;;;;;4988933;28;20052;-84
2023/09/21 09:26:21;;;;;;;0.82;0.63;;;15.60;99.90;;;;;;5006063;28;20426;-82
2023/09/21 09:28:47;;;;;;;1.65;0.50;;;15.60;99.90;;;;;;5005077;28;20049;-82
2023/09/21 09:31:14;;;;;;;2.47;0.60;;;15.60;99.90;;;;;;5005324;28;20072;-83
2023/09/21 09:33:40;;;;;;;0.38;0.38;;;15.60;99.90;;;;;;5006255;28;20438;-84
2023/09/21 09:36:06;;;;;;;1.27;0.70;;;15.60;99.90;;;;;;5006454;28;20049;-83
2023/09/21 09:38:35;;;;;;;1.13;0.47;;;15.60;99.90;;;;;;5021754;28;20427;-82
2023/09/21 09:41:06;;;;;;;0.68;0.38;;;15.60;99.90;;;;;;5022574;28;20117;-84
2023/09/21 09:43:37;;;;;;;1.90;0.70;;;15.60;99.90;;;;;;5004707;28;20083;-83
2023/09/21 09:46:05;;;;;;;0.95;0.60;;;15.70;99.90;;;;;;5023940;28;20088;-86
2023/09/21 09:48:32;;;;;;;1.85;1.25;;;15.70;99.90;;;;;;5022804;28;20124;-83
2023/09/21 09:51:04;;;;;;;1.02;0.70;;;15.60;99.90;;;;;;4988691;28;20042;-83
2023/09/21 09:53:31;;;;;;;;;;;15.70;99.90;;;;;;5005431;28;20041;-83
2023/09/21 09:56:00;;;;;;;0.73;0.70;;;15.70;99.90;;;;;;5004411;28;19963;-84
2023/09/21 09:58:27;;;;;;;0.75;0.50;;;15.70;99.90;;;;;;4988080;28;20030;-79
2023/09/21 10:00:55;;;;;;;0.98;0.60;;;15.70;99.90;;;;;;5004596;28;20491;-83
2023/09/21 10:03:22;;;;;;;0.80;0.50;;;15.80;99.90;;;;;;5021392;28;20045;-82
2023/09/21 10:05:49;;;;;;;1.58;0.70;;;15.80;99.90;;;;;;5005039;28;20072;-83
2023/09/21 10:08:15;;;;;;;1.48;0.70;;;15.80;99.90;;;;;;4997698;28;20052;-83
2023/09/21 10:10:47;;;;;;;1.65;0.60;;;15.90;99.90;;;;;;4998987;28;20080;-82
2023/09/21 10:13:13;;;;;;;1.13;0.70;;;15.90;99.90;;;;;;4995060;28;20050;-85
2023/09/21 10:15:41;;;;;;;0.77;0.50;;;15.90;99.90;;;;;;4984181;28;20537;-81
2023/09/21 10:18:08;;;;;;;3.53;0.80;;;15.90;99.90;;;;;;5004374;28;20088;-80
2023/09/21 10:20:36;;;;;;;1.08;0.52;;;15.80;99.90;;;;;;5005225;28;20060;-85
2023/09/21 10:23:09;;;;;;;0.90;0.45;;;15.90;99.90;;;;;;5021929;28;20046;-82
2023/09/21 10:25:39;;;;;;;1.20;0.80;;;15.80;99.90;;;;;;5004331;28;20422;-85
2023/09/21 10:28:29;;;;;;;2.05;0.52;;;15.80;99.90;;;;;;5004661;28;20077;-83
2023/09/21 10:31:09;;;;;;;2.17;0.82;;;15.80;99.90;;;;;;5004081;28;20051;-81
2023/09/21 10:33:51;;;;;;;1.77;0.70;;;15.80;99.90;;;;;;4997396;28;20120;-81
2023/09/21 10:36:23;;;;;;;1.02;0.70;;;15.70;99.90;;;;;;4997161;28;20053;-84
2023/09/21 10:39:13;;;;;;;1.80;0.50;;;15.70;99.90;;;;;;5003045;28;20045;-86
2023/09/21 10:41:42;;;;;;;3.08;0.52;;;15.70;99.90;;;;;;5003633;28;20042;-81
2023/09/21 10:44:08;;;;;;;0.47;0.47;;;15.70;99.90;;;;;;5004330;28;20143;-85
2023/09/21 10:46:35;;;;;;;1.40;0.60;;;15.80;99.90;;;;;;5004576;28;20037;-86
2023/09/21 10:49:04;;;;;;;1.08;0.80;;;15.70;99.90;;;;;;4987896;28;20050;-83
2023/09/21 10:51:33;;;;;;;0.88;0.50;;;15.80;99.90;;;;;;5003351;28;20048;-86
2023/09/21 10:54:00;;;;;;;1.15;0.88;;;15.80;99.90;;;;;;5003459;28;20504;-84
2023/09/21 10:56:26;;;;;;;2.42;0.68;;;15.80;99.90;;;;;;5020526;28;20092;-84
2023/09/21 10:58:52;;;;;;;2.65;0.93;;;15.80;99.90;;;;;;5003760;28;20116;-87
2023/09/21 11:01:19;;;;;;;1.38;0.65;;;15.80;99.90;;;;;;5003845;28;20515;-81
2023/09/21 11:03:48;;;;;;;1.70;0.80;;;15.80;99.90;;;;;;5003450;28;20137;-85
2023/09/21 11:06:16;;;;;;;1.40;0.98;;;15.80;99.90;;;;;;5003581;28;20396;-87
2023/09/21 11:08:42;;;;;;;1.40;0.60;;;15.80;99.90;;;;;;5020558;28;20487;-88
2023/09/21 11:11:08;;;;;;;0.70;0.55;;;15.80;99.90;;;;;;5024361;28;20042;-83
2023/09/21 11:13:33;;;;;;;2.28;0.50;;;15.80;99.90;;;;;;5026023;28;20466;-85
2023/09/21 11:15:59;;;;;;;1.33;0.90;;;15.80;99.90;;;;;;5007605;28;20048;-87
2023/09/21 11:18:28;;;;;;;1.67;0.90;;;15.90;99.90;;;;;;5007101;28;20061;-87
2023/09/21 11:20:56;;;;;;;2.83;1.02;;;15.90;99.90;;;;;;5007496;28;20574;-84
2023/09/21 11:23:22;;;;;;;0.73;0.60;;;15.90;99.90;;;;;;5007630;28;20049;-82
2023/09/21 11:25:49;;;;;;;1.13;0.60;;;15.90;99.90;;;;;;5006018;28;20045;-87
2023/09/21 11:28:16;;;;;;;1.52;1.23;;;15.90;99.90;;;;;;5007083;28;20042;-83
2023/09/21 11:30:42;;;;;;;0.63;0.60;;;15.90;99.90;;;;;;5025153;28;20041;-86
2023/09/21 11:33:10;;;;;;;1.30;0.60;;;15.90;99.90;;;;;;5007855;28;20045;-86
2023/09/21 11:35:36;;;;;;;1.73;1.17;;;15.90;99.90;;;;;;5007686;28;20060;-84
2023/09/21 11:38:03;;;;;;;1.23;0.45;;;15.90;99.90;;;;;;5007481;28;20089;-82
2023/09/21 11:40:29;;;;;;;1.65;0.73;;;15.90;99.90;;;;;;5006040;28;20045;-86
2023/09/21 11:42:59;;;;;;;1.42;0.63;;;15.80;99.90;;;;;;5007433;28;20403;-87
2023/09/21 11:45:27;;;;;;;1.73;0.70;;;15.90;99.90;;;;;;5006414;28;20400;-84
2023/09/21 11:47:57;;;;;;;1.58;1.08;;;15.90;99.90;;;;;;5006932;28;20578;-84
2023/09/21 11:50:32;;;;;;;2.65;0.80;;;15.80;99.90;;;;;;5006824;28;20080;-84
2023/09/21 11:52:58;;;;;;;2.45;1.00;;;15.90;99.90;;;;;;5006683;28;20045;-85
2023/09/21 11:55:25;;;;;;;1.40;0.98;;;15.80;99.90;;;;;;5023725;28;20076;-83
2023/09/21 11:57:51;;;;;;;1.75;0.63;;;15.80;99.90;;;;;;5006894;28;20037;-87
2023/09/21 12:00:43;;;;;;;1.95;1.25;;;15.90;99.90;;;;;;5006947;28;20473;-81
2023/09/21 12:03:13;;;;;;;1.40;1.02;;;15.90;99.90;;;;;;5006840;28;20092;-83
2023/09/21 12:05:42;;;;;;;1.40;0.88;;;15.80;99.90;;;;;;5004435;28;20133;-79
2023/09/21 12:08:10;;;;;;;3.17;0.98;;;15.80;99.90;;;;;;4990986;28;20037;-80
2023/09/21 12:10:36;;;;;;;1.65;0.98;;;15.80;99.90;;;;;;5002611;28;20073;-84
2023/09/21 12:13:03;;;;;;;1.23;0.70;;;15.90;99.90;;;;;;5002366;28;20046;-81
2023/09/21 12:15:29;;;;;;;1.00;0.90;;;15.90;99.90;;;;;;5021422;28;20128;-84
2023/09/21 12:17:55;;;;;;;2.38;1.00;;;15.80;99.90;;;;;;5006457;28;20487;-84
2023/09/21 12:20:21;;;;;;;1.08;0.77;;;15.80;99.90;;;;;;5005544;28;20069;-85
2023/09/21 12:22:47;;;;;;;1.42;0.70;;;15.80;99.90;;;;;;5006587;28;20495;-81
2023/09/21 12:25:16;;;;;;;0.82;0.80;;;15.80;99.90;;;;;;5004385;28;20040;-81
2023/09/21 12:27:42;;;;;;;1.00;0.93;;;15.90;99.90;;;;;;4989377;28;20033;-81
2023/09/21 12:30:12;;;;;;;0.85;0.60;;;15.90;99.90;;;;;;5007114;28;20395;-86
2023/09/21 12:32:41;;;;;;;0.50;0.50;;;15.80;99.90;;;;;;5004861;28;20507;-84
2023/09/21 12:35:11;;;;;;;1.10;0.77;;;15.80;99.90;;;;;;5007007;28;20293;-81
2023/09/21 12:37:39;;;;;;;0.50;0.50;;;15.90;99.90;;;;;;5023318;28;20345;-83
2023/09/21 12:40:11;;;;;;;1.35;1.08;;;15.90;99.90;;;;;;5007015;28;20132;-89
2023/09/21 12:42:38;;;;;;;0.75;0.70;;;15.90;99.90;;;;;;5006707;28;20065;-85
2023/09/21 12:45:05;;;;;;;1.20;0.77;;;16.00;99.90;;;;;;4991028;28;20037;-83
2023/09/21 12:47:31;;;;;;;2.25;0.73;;;16.00;99.90;;;;;;5005952;28;20045;-86
2023/09/21 12:49:56;;;;;;;1.00;0.50;;;16.00;99.90;;;;;;5005204;28;20052;-83
2023/09/21 12:52:22;;;;;;;1.13;0.73;;;16.00;99.90;;;;;;5000936;28;20038;-87
2023/09/21 12:54:48;;;;;;;0.98;0.60;;;15.90;99.90;;;;;;5005554;28;20052;-85